Gulizar Ana — TCOI6 — position and weather

sailwx.info

Track history (hours):
 
Tides and Currents Weather Stations Pressure Air Temp Water Temp Dewpoint Dewpoint Depression Visibility Wind Speed Wind Dir Waves Ship Positions

Gulizar Ana

Last reported at 2018-Jan-12 14:57 UTC. Time now 2018-Jan-21 03:12 UTC.
Position N 38°29' E 015°41'.
Warning: this ship's position is 8 days out of date.

Length 81 m; draft 5.7 m.

Type: Cargo ship. MMSI: 271000825.

Date/timePositionNaut miles runAvg speedWind from/ knotsBaromVisibWave heightAir tempDewpointWater temp
2018-Jan-12 14:57N 38°29' E 015°41'4 9.1
2018-Jan-12 14:30N 38°33' E 015°42'59 7.2
2018-Jan-12 06:17N 39°30' E 015°21'3 8.3
2018-Jan-12 05:57N 39°33' E 015°20'4 8.2
2018-Jan-12 05:29N 39°37' E 015°19'16 8.4
2018-Jan-12 03:37N 39°52' E 015°13'300 8.1
2018-Jan-10 14:49N 43°15' E 010°18'3 8.2
2018-Jan-10 14:30N 43°17' E 010°17'4 8.2
2018-Jan-10 14:00N 43°21' E 010°16'4 8.3
2018-Jan-10 13:30N 43°25' E 010°14'4 8.4
2018-Jan-10 13:00N 43°29' E 010°12'4 7.1
2018-Jan-10 12:30N 43°32' E 010°15'2 4.6
2018-Jan-10 12:00N 43°33' E 010°18'0 0.0
2018-Jan-10 11:30N 43°33' E 010°18'0 0.0
2018-Jan-10 11:00N 43°33' E 010°18'0 0.0
2018-Jan-10 10:26N 43°33' E 010°18'0 0.0
2018-Jan-10 10:00N 43°33' E 010°18'0 0.0
2018-Jan-10 09:30N 43°33' E 010°18'0 0.0
2018-Jan-10 09:00N 43°33' E 010°18'0 0.0
2018-Jan-10 08:28N 43°33' E 010°18'0 0.0
2018-Jan-10 08:00N 43°33' E 010°18'0 0.0
2018-Jan-10 07:30N 43°33' E 010°18'0 0.0
2018-Jan-10 07:00N 43°33' E 010°18'0 0.0
2018-Jan-10 06:27N 43°33' E 010°18'0 0.0
2018-Jan-10 06:00N 43°33' E 010°18'0 0.0
2018-Jan-10 05:30N 43°33' E 010°18'0 0.0
2018-Jan-10 04:56N 43°33' E 010°18'0 0.0
2018-Jan-10 04:26N 43°33' E 010°18'0 0.0
2018-Jan-10 04:00N 43°33' E 010°18'0 0.0
2018-Jan-10 03:30N 43°33' E 010°18'0 0.0
2018-Jan-10 03:00N 43°33' E 010°18'0 0.0
2018-Jan-10 02:30N 43°33' E 010°18'0 0.0
2018-Jan-10 02:00N 43°33' E 010°18'0 0.0
2018-Jan-10 01:30N 43°33' E 010°18'0 0.0
2018-Jan-10 00:56N 43°33' E 010°18'0 0.0
2018-Jan-10 00:30N 43°33' E 010°18'0 0.0
2018-Jan-10 00:00N 43°33' E 010°18'0 0.0
2018-Jan-09 23:30N 43°33' E 010°18'0 0.0
2018-Jan-09 22:56N 43°33' E 010°18'0 0.0
2018-Jan-09 22:30N 43°33' E 010°18'0 0.0
2018-Jan-09 22:01N 43°33' E 010°18'0 0.0
2018-Jan-09 21:30N 43°33' E 010°18'0 0.0
2018-Jan-09 21:00N 43°33' E 010°18'0 0.0
2018-Jan-09 20:27N 43°33' E 010°18'0 0.0
2018-Jan-09 20:00N 43°33' E 010°18'0 0.0
2018-Jan-09 19:30N 43°33' E 010°18'0 0.0
2018-Jan-09 18:57N 43°33' E 010°18'0 0.0
2018-Jan-09 18:30N 43°33' E 010°18'0 0.0
2018-Jan-09 17:56N 43°33' E 010°18'0 0.0
2018-Jan-09 17:30N 43°33' E 010°18'0 0.0
2018-Jan-09 16:56N 43°33' E 010°18'0 0.0
2018-Jan-09 16:30N 43°33' E 010°18'0 0.0
2018-Jan-09 16:00N 43°33' E 010°18'0 0.0
2018-Jan-09 15:30N 43°33' E 010°18'0 0.0
2018-Jan-09 15:00N 43°33' E 010°18'0 0.0
2018-Jan-09 14:30N 43°33' E 010°18'0 0.0
2018-Jan-09 14:00N 43°33' E 010°18'0 0.0
2018-Jan-09 13:30N 43°33' E 010°18'0 0.0
2018-Jan-09 13:00N 43°33' E 010°18'0 0.0
2018-Jan-09 12:30N 43°33' E 010°18'0 0.0
2018-Jan-09 12:00N 43°33' E 010°18'0 0.0
2018-Jan-09 11:30N 43°33' E 010°18'0 0.0
2018-Jan-09 11:00N 43°33' E 010°18'0 0.0
2018-Jan-09 10:30N 43°33' E 010°18'0 0.0
2018-Jan-09 10:00N 43°33' E 010°18'0 0.0
2018-Jan-09 09:30N 43°33' E 010°18'0 0.0
2018-Jan-09 09:00N 43°33' E 010°18'0 0.0
2018-Jan-09 08:30N 43°33' E 010°18'0 0.0
2018-Jan-09 08:00N 43°33' E 010°18'0 0.0
2018-Jan-09 07:30N 43°33' E 010°18'0 0.0
2018-Jan-09 07:00N 43°33' E 010°18'0 0.0
2018-Jan-09 06:30N 43°33' E 010°18'0 0.0
2018-Jan-09 06:00N 43°33' E 010°18'0 0.0
2018-Jan-09 05:30N 43°33' E 010°18'0 0.0
2018-Jan-09 05:00N 43°33' E 010°18'0 0.0
2018-Jan-09 04:30N 43°33' E 010°18'0 0.0
2018-Jan-09 04:00N 43°33' E 010°18'0 0.0
2018-Jan-09 03:30N 43°33' E 010°18'0 0.1
2018-Jan-09 03:00N 43°33' E 010°18'0 0.1
2018-Jan-09 02:30N 43°33' E 010°18'0 0.0
2018-Jan-09 02:00N 43°33' E 010°18'0 0.0
2018-Jan-09 01:31N 43°33' E 010°18'0 0.0
2018-Jan-09 01:00N 43°33' E 010°18'0 0.0
2018-Jan-09 00:30N 43°33' E 010°18'0 0.1
2018-Jan-09 00:00N 43°33' E 010°18'0 0.1
2018-Jan-08 23:30N 43°33' E 010°18'0 0.1
2018-Jan-08 23:00N 43°33' E 010°18'0 0.1
2018-Jan-08 22:30N 43°33' E 010°18'0 0.0
2018-Jan-08 22:00N 43°33' E 010°18'0 0.0
2018-Jan-08 21:31N 43°33' E 010°18'0 0.0
2018-Jan-08 21:00N 43°33' E 010°18'0 0.0
2018-Jan-08 20:30N 43°33' E 010°18'0 0.0
2018-Jan-08 20:00N 43°33' E 010°18'0 0.0
2018-Jan-08 19:30N 43°33' E 010°18'0 0.0
2018-Jan-08 19:00N 43°33' E 010°18'0 0.0
2018-Jan-08 18:30N 43°33' E 010°18'0 0.1
2018-Jan-08 18:00N 43°33' E 010°18'0 0.1
2018-Jan-08 17:30N 43°33' E 010°18'1 1.9
2018-Jan-08 17:00N 43°32' E 010°17'3 6.9
2018-Jan-08 16:30N 43°29' E 010°15'0 0.6
2018-Jan-08 16:00N 43°29' E 010°16'0 0.0
2018-Jan-08 15:30N 43°29' E 010°16'0 0.0
2018-Jan-08 15:00N 43°29' E 010°16'0 0.0
2018-Jan-08 14:30N 43°29' E 010°16'0 0.0
2018-Jan-08 14:00N 43°29' E 010°16'0 0.1
2018-Jan-08 13:30N 43°29' E 010°16'0 0.1
2018-Jan-08 13:01N 43°29' E 010°16'0 0.0
2018-Jan-08 12:30N 43°29' E 010°16'0 0.1
2018-Jan-08 12:00N 43°29' E 010°16'0 0.0
2018-Jan-08 11:27N 43°29' E 010°16'0 0.1
2018-Jan-08 11:00N 43°29' E 010°16'0 0.0
2018-Jan-08 10:30N 43°29' E 010°16'0 0.0
2018-Jan-08 09:54N 43°29' E 010°16'0 0.1
2018-Jan-08 09:27N 43°29' E 010°16'0 0.0
2018-Jan-08 09:00N 43°29' E 010°16'0 0.0
2018-Jan-08 08:27N 43°29' E 010°16'0 0.0
2018-Jan-08 08:00N 43°29' E 010°16'0 0.0
2018-Jan-08 07:30N 43°29' E 010°16'0 0.0
2018-Jan-08 07:00N 43°29' E 010°16'0 0.0
2018-Jan-08 06:29N 43°29' E 010°16'0 0.0
2018-Jan-08 05:59N 43°29' E 010°16'0 0.0
2018-Jan-08 05:29N 43°29' E 010°16'0 0.0
2018-Jan-08 04:59N 43°29' E 010°16'0 0.1
2018-Jan-08 04:29N 43°29' E 010°16'0 0.1
2018-Jan-08 04:01N 43°29' E 010°16'0 0.0
2018-Jan-08 03:31N 43°29' E 010°16'0 0.0
2018-Jan-08 03:00N 43°29' E 010°16'0 0.0
2018-Jan-08 02:30N 43°29' E 010°16'0 0.0
2018-Jan-08 02:01N 43°29' E 010°16'0 0.0
2018-Jan-08 01:31N 43°29' E 010°16'0 0.0
2018-Jan-08 01:00N 43°29' E 010°16'0 0.0
2018-Jan-08 00:31N 43°29' E 010°16'0 0.1
2018-Jan-08 00:01N 43°29' E 010°16'0 0.0
2018-Jan-07 23:31N 43°29' E 010°16'0 0.0
2018-Jan-07 23:01N 43°29' E 010°16'0 0.0
2018-Jan-07 22:31N 43°29' E 010°16'0 0.0
2018-Jan-07 22:01N 43°29' E 010°16'0 0.0
2018-Jan-07 21:31N 43°29' E 010°16'0 0.0
2018-Jan-07 21:01N 43°29' E 010°16'0 0.0
2018-Jan-07 20:30N 43°29' E 010°16'0 0.0
2018-Jan-07 20:01N 43°29' E 010°16'0 0.0
2018-Jan-07 19:31N 43°29' E 010°16'0 0.0
2018-Jan-07 19:00N 43°29' E 010°16'0 0.0
2018-Jan-07 18:31N 43°29' E 010°16'0 0.1
2018-Jan-07 18:01N 43°29' E 010°16'0 0.0
2018-Jan-07 17:31N 43°29' E 010°16'0 0.0
2018-Jan-07 17:01N 43°29' E 010°16'0 0.0
2018-Jan-07 16:31N 43°29' E 010°16'0 0.0
2018-Jan-07 16:01N 43°29' E 010°16'0 0.0
2018-Jan-07 15:31N 43°29' E 010°16'0 0.0
2018-Jan-07 15:00N 43°29' E 010°16'0 0.0
2018-Jan-07 14:30N 43°29' E 010°16'0 0.0
2018-Jan-07 14:01N 43°29' E 010°16'0 0.0
2018-Jan-07 13:30N 43°29' E 010°16'0 0.0
2018-Jan-07 13:01N 43°29' E 010°16'0 0.1
2018-Jan-07 12:31N 43°29' E 010°16'0 0.0
2018-Jan-07 12:00N 43°29' E 010°16'0 0.0
2018-Jan-07 11:31N 43°29' E 010°16'0 0.0
2018-Jan-07 11:01N 43°29' E 010°16'0 0.0
2018-Jan-07 10:31N 43°29' E 010°16'0 0.0
2018-Jan-07 10:00N 43°29' E 010°16'0 0.1
2018-Jan-07 09:31N 43°29' E 010°16'0 0.0
2018-Jan-07 09:01N 43°29' E 010°16'0 0.0
2018-Jan-07 08:31N 43°29' E 010°16'0 0.0
2018-Jan-07 08:01N 43°29' E 010°16'0 0.0
2018-Jan-07 07:31N 43°29' E 010°16'0 0.0
2018-Jan-07 07:01N 43°29' E 010°16'0 0.0
2018-Jan-07 06:31N 43°29' E 010°16'0 0.0
2018-Jan-07 06:01N 43°29' E 010°16'0 0.0
2018-Jan-07 05:31N 43°29' E 010°16'0 0.0
2018-Jan-07 05:01N 43°29' E 010°16'0 0.0
2018-Jan-07 04:31N 43°29' E 010°16'0 0.0
2018-Jan-07 04:01N 43°29' E 010°16'0 0.0
2018-Jan-07 03:30N 43°29' E 010°16'0 0.0
2018-Jan-07 03:00N 43°29' E 010°16'0 0.0
2018-Jan-07 02:30N 43°29' E 010°16'0 0.0
2018-Jan-07 02:01N 43°29' E 010°16'0 0.0
2018-Jan-07 01:31N 43°29' E 010°16'0 0.0
2018-Jan-07 00:31N 43°29' E 010°16'0 0.1
2018-Jan-07 00:01N 43°29' E 010°16'0 0.0
2018-Jan-06 23:31N 43°29' E 010°16'0 0.0
2018-Jan-06 23:01N 43°29' E 010°16'0 0.0
2018-Jan-06 22:31N 43°29' E 010°16'0 0.0
2018-Jan-06 22:00N 43°29' E 010°16'0 0.0
2018-Jan-06 21:31N 43°29' E 010°16'0 0.0
2018-Jan-06 21:01N 43°29' E 010°16'0 0.0
2018-Jan-06 20:31N 43°29' E 010°16'0 0.0
2018-Jan-06 20:01N 43°29' E 010°16'0 0.0
2018-Jan-06 19:31N 43°29' E 010°16'0 0.0
2018-Jan-06 19:01N 43°29' E 010°16'0 0.0
2018-Jan-06 18:31N 43°29' E 010°16'0 0.0
2018-Jan-06 18:01N 43°29' E 010°16'0 0.0
2018-Jan-06 17:31N 43°29' E 010°16'0 0.0
2018-Jan-06 17:01N 43°29' E 010°16'0 0.0
2018-Jan-06 16:31N 43°30' E 010°16'0 0.0
2018-Jan-06 16:01N 43°30' E 010°16'0 0.0
2018-Jan-06 15:30N 43°30' E 010°16'0 0.0
2018-Jan-06 15:01N 43°29' E 010°16'0 0.0
2018-Jan-06 14:30N 43°29' E 010°16'0 0.0
2018-Jan-06 14:01N 43°29' E 010°16'0 0.0
2018-Jan-06 13:31N 43°29' E 010°16'0 0.1
2018-Jan-06 13:00N 43°29' E 010°16'0 0.0
2018-Jan-06 12:31N 43°29' E 010°16'0 0.0
2018-Jan-06 12:00N 43°29' E 010°16'0 0.0
2018-Jan-06 11:30N 43°29' E 010°16'0 0.0
2018-Jan-06 11:01N 43°29' E 010°16'0 0.0
2018-Jan-06 10:31N 43°29' E 010°16'0 0.0
2018-Jan-06 10:00N 43°29' E 010°16'0 0.0
2018-Jan-06 09:31N 43°29' E 010°16'0 0.0
2018-Jan-06 09:01N 43°29' E 010°16'0 0.0
2018-Jan-06 08:30N 43°29' E 010°16'0 0.0
2018-Jan-06 08:01N 43°29' E 010°16'0 0.0
2018-Jan-06 07:31N 43°29' E 010°16'0 0.0
2018-Jan-06 07:01N 43°29' E 010°16'0 0.0
2018-Jan-06 06:31N 43°29' E 010°16'0 0.0
2018-Jan-06 06:00N 43°29' E 010°16'0 0.0
2018-Jan-06 05:31N 43°29' E 010°16'0 0.0
2018-Jan-06 05:01N 43°29' E 010°16'0 0.0
2018-Jan-06 04:31N 43°29' E 010°16'0 0.0
2018-Jan-06 04:01N 43°29' E 010°16'0 0.0
2018-Jan-06 03:31N 43°29' E 010°16'0 0.0
2018-Jan-06 03:01N 43°29' E 010°16'0 0.1
2018-Jan-06 02:30N 43°29' E 010°16'0 0.0
2018-Jan-06 02:01N 43°29' E 010°16'0 0.1
2018-Jan-06 01:31N 43°29' E 010°16'0 0.3
2018-Jan-06 01:01N 43°29' E 010°16'5 9.8
2018-Jan-06 00:30N 43°25' E 010°15'510.1
2018-Jan-06 00:01N 43°20' E 010°14'510.2
2018-Jan-05 23:31N 43°15' E 010°12'510.4
2018-Jan-05 23:01N 43°09' E 010°11'510.4
2018-Jan-05 22:30N 43°04' E 010°10'610.3
2018-Jan-05 21:56N 42°59' E 010°09'  
Track history (hours):
 
Tides and Currents Weather Stations Pressure Air Temp Water Temp Dewpoint Dewpoint Depression Visibility Wind Speed Wind Dir Waves Ship Positions

Gulizar Ana

Last reported at 2018-Jan-12 14:57 UTC. Time now 2018-Jan-21 03:12 UTC.
Position N 38°29' E 015°41'.
Warning: this ship's position is 8 days out of date.

Length 81 m; draft 5.7 m.

Type: Cargo ship. MMSI: 271000825.

Date/timePositionNaut miles runAvg speedWind from/ knotsBaromVisibWave heightAir tempDewpointWater temp
2018-Jan-12 14:57N 38°29' E 015°41'4 9.1
2018-Jan-12 14:30N 38°33' E 015°42'59 7.2
2018-Jan-12 06:17N 39°30' E 015°21'3 8.3
2018-Jan-12 05:57N 39°33' E 015°20'4 8.2
2018-Jan-12 05:29N 39°37' E 015°19'16 8.4
2018-Jan-12 03:37N 39°52' E 015°13'300 8.1
2018-Jan-10 14:49N 43°15' E 010°18'3 8.2
2018-Jan-10 14:30N 43°17' E 010°17'4 8.2
2018-Jan-10 14:00N 43°21' E 010°16'4 8.3
2018-Jan-10 13:30N 43°25' E 010°14'4 8.4
2018-Jan-10 13:00N 43°29' E 010°12'4 7.1
2018-Jan-10 12:30N 43°32' E 010°15'2 4.6
2018-Jan-10 12:00N 43°33' E 010°18'0 0.0
2018-Jan-10 11:30N 43°33' E 010°18'0 0.0
2018-Jan-10 11:00N 43°33' E 010°18'0 0.0
2018-Jan-10 10:26N 43°33' E 010°18'0 0.0
2018-Jan-10 10:00N 43°33' E 010°18'0 0.0
2018-Jan-10 09:30N 43°33' E 010°18'0 0.0
2018-Jan-10 09:00N 43°33' E 010°18'0 0.0
2018-Jan-10 08:28N 43°33' E 010°18'0 0.0
2018-Jan-10 08:00N 43°33' E 010°18'0 0.0
2018-Jan-10 07:30N 43°33' E 010°18'0 0.0
2018-Jan-10 07:00N 43°33' E 010°18'0 0.0
2018-Jan-10 06:27N 43°33' E 010°18'0 0.0
2018-Jan-10 06:00N 43°33' E 010°18'0 0.0
2018-Jan-10 05:30N 43°33' E 010°18'0 0.0
2018-Jan-10 04:56N 43°33' E 010°18'0 0.0
2018-Jan-10 04:26N 43°33' E 010°18'0 0.0
2018-Jan-10 04:00N 43°33' E 010°18'0 0.0
2018-Jan-10 03:30N 43°33' E 010°18'0 0.0
2018-Jan-10 03:00N 43°33' E 010°18'0 0.0
2018-Jan-10 02:30N 43°33' E 010°18'0 0.0
2018-Jan-10 02:00N 43°33' E 010°18'0 0.0
2018-Jan-10 01:30N 43°33' E 010°18'0 0.0
2018-Jan-10 00:56N 43°33' E 010°18'0 0.0
2018-Jan-10 00:30N 43°33' E 010°18'0 0.0
2018-Jan-10 00:00N 43°33' E 010°18'0 0.0
2018-Jan-09 23:30N 43°33' E 010°18'0 0.0
2018-Jan-09 22:56N 43°33' E 010°18'0 0.0
2018-Jan-09 22:30N 43°33' E 010°18'0 0.0
2018-Jan-09 22:01N 43°33' E 010°18'0 0.0
2018-Jan-09 21:30N 43°33' E 010°18'0 0.0
2018-Jan-09 21:00N 43°33' E 010°18'0 0.0
2018-Jan-09 20:27N 43°33' E 010°18'0 0.0
2018-Jan-09 20:00N 43°33' E 010°18'0 0.0
2018-Jan-09 19:30N 43°33' E 010°18'0 0.0
2018-Jan-09 18:57N 43°33' E 010°18'0 0.0
2018-Jan-09 18:30N 43°33' E 010°18'0 0.0
2018-Jan-09 17:56N 43°33' E 010°18'0 0.0
2018-Jan-09 17:30N 43°33' E 010°18'0 0.0
2018-Jan-09 16:56N 43°33' E 010°18'0 0.0
2018-Jan-09 16:30N 43°33' E 010°18'0 0.0
2018-Jan-09 16:00N 43°33' E 010°18'0 0.0
2018-Jan-09 15:30N 43°33' E 010°18'0 0.0
2018-Jan-09 15:00N 43°33' E 010°18'0 0.0
2018-Jan-09 14:30N 43°33' E 010°18'0 0.0
2018-Jan-09 14:00N 43°33' E 010°18'0 0.0
2018-Jan-09 13:30N 43°33' E 010°18'0 0.0
2018-Jan-09 13:00N 43°33' E 010°18'0 0.0
2018-Jan-09 12:30N 43°33' E 010°18'0 0.0
2018-Jan-09 12:00N 43°33' E 010°18'0 0.0
2018-Jan-09 11:30N 43°33' E 010°18'0 0.0
2018-Jan-09 11:00N 43°33' E 010°18'0 0.0
2018-Jan-09 10:30N 43°33' E 010°18'0 0.0
2018-Jan-09 10:00N 43°33' E 010°18'0 0.0
2018-Jan-09 09:30N 43°33' E 010°18'0 0.0
2018-Jan-09 09:00N 43°33' E 010°18'0 0.0
2018-Jan-09 08:30N 43°33' E 010°18'0 0.0
2018-Jan-09 08:00N 43°33' E 010°18'0 0.0
2018-Jan-09 07:30N 43°33' E 010°18'0 0.0
2018-Jan-09 07:00N 43°33' E 010°18'0 0.0
2018-Jan-09 06:30N 43°33' E 010°18'0 0.0
2018-Jan-09 06:00N 43°33' E 010°18'0 0.0
2018-Jan-09 05:30N 43°33' E 010°18'0 0.0
2018-Jan-09 05:00N 43°33' E 010°18'0 0.0
2018-Jan-09 04:30N 43°33' E 010°18'0 0.0
2018-Jan-09 04:00N 43°33' E 010°18'0 0.0
2018-Jan-09 03:30N 43°33' E 010°18'0 0.1
2018-Jan-09 03:00N 43°33' E 010°18'0 0.1
2018-Jan-09 02:30N 43°33' E 010°18'0 0.0
2018-Jan-09 02:00N 43°33' E 010°18'0 0.0
2018-Jan-09 01:31N 43°33' E 010°18'0 0.0
2018-Jan-09 01:00N 43°33' E 010°18'0 0.0
2018-Jan-09 00:30N 43°33' E 010°18'0 0.1
2018-Jan-09 00:00N 43°33' E 010°18'0 0.1
2018-Jan-08 23:30N 43°33' E 010°18'0 0.1
2018-Jan-08 23:00N 43°33' E 010°18'0 0.1
2018-Jan-08 22:30N 43°33' E 010°18'0 0.0
2018-Jan-08 22:00N 43°33' E 010°18'0 0.0
2018-Jan-08 21:31N 43°33' E 010°18'0 0.0
2018-Jan-08 21:00N 43°33' E 010°18'0 0.0
2018-Jan-08 20:30N 43°33' E 010°18'0 0.0
2018-Jan-08 20:00N 43°33' E 010°18'0 0.0
2018-Jan-08 19:30N 43°33' E 010°18'0 0.0
2018-Jan-08 19:00N 43°33' E 010°18'0 0.0
2018-Jan-08 18:30N 43°33' E 010°18'0 0.1
2018-Jan-08 18:00N 43°33' E 010°18'0 0.1
2018-Jan-08 17:30N 43°33' E 010°18'1 1.9
2018-Jan-08 17:00N 43°32' E 010°17'3 6.9
2018-Jan-08 16:30N 43°29' E 010°15'0 0.6
2018-Jan-08 16:00N 43°29' E 010°16'0 0.0
2018-Jan-08 15:30N 43°29' E 010°16'0 0.0
2018-Jan-08 15:00N 43°29' E 010°16'0 0.0
2018-Jan-08 14:30N 43°29' E 010°16'0 0.0
2018-Jan-08 14:00N 43°29' E 010°16'0 0.1
2018-Jan-08 13:30N 43°29' E 010°16'0 0.1
2018-Jan-08 13:01N 43°29' E 010°16'0 0.0
2018-Jan-08 12:30N 43°29' E 010°16'0 0.1
2018-Jan-08 12:00N 43°29' E 010°16'0 0.0
2018-Jan-08 11:27N 43°29' E 010°16'0 0.1
2018-Jan-08 11:00N 43°29' E 010°16'0 0.0
2018-Jan-08 10:30N 43°29' E 010°16'0 0.0
2018-Jan-08 09:54N 43°29' E 010°16'0 0.1
2018-Jan-08 09:27N 43°29' E 010°16'0 0.0
2018-Jan-08 09:00N 43°29' E 010°16'0 0.0
2018-Jan-08 08:27N 43°29' E 010°16'0 0.0
2018-Jan-08 08:00N 43°29' E 010°16'0 0.0
2018-Jan-08 07:30N 43°29' E 010°16'0 0.0
2018-Jan-08 07:00N 43°29' E 010°16'0 0.0
2018-Jan-08 06:29N 43°29' E 010°16'0 0.0
2018-Jan-08 05:59N 43°29' E 010°16'0 0.0
2018-Jan-08 05:29N 43°29' E 010°16'0 0.0
2018-Jan-08 04:59N 43°29' E 010°16'0 0.1
2018-Jan-08 04:29N 43°29' E 010°16'0 0.1
2018-Jan-08 04:01N 43°29' E 010°16'0 0.0
2018-Jan-08 03:31N 43°29' E 010°16'0 0.0
2018-Jan-08 03:00N 43°29' E 010°16'0 0.0
2018-Jan-08 02:30N 43°29' E 010°16'0 0.0
2018-Jan-08 02:01N 43°29' E 010°16'0 0.0
2018-Jan-08 01:31N 43°29' E 010°16'0 0.0
2018-Jan-08 01:00N 43°29' E 010°16'0 0.0
2018-Jan-08 00:31N 43°29' E 010°16'0 0.1
2018-Jan-08 00:01N 43°29' E 010°16'0 0.0
2018-Jan-07 23:31N 43°29' E 010°16'0 0.0
2018-Jan-07 23:01N 43°29' E 010°16'0 0.0
2018-Jan-07 22:31N 43°29' E 010°16'0 0.0
2018-Jan-07 22:01N 43°29' E 010°16'0 0.0
2018-Jan-07 21:31N 43°29' E 010°16'0 0.0
2018-Jan-07 21:01N 43°29' E 010°16'0 0.0
2018-Jan-07 20:30N 43°29' E 010°16'0 0.0
2018-Jan-07 20:01N 43°29' E 010°16'0 0.0
2018-Jan-07 19:31N 43°29' E 010°16'0 0.0
2018-Jan-07 19:00N 43°29' E 010°16'0 0.0
2018-Jan-07 18:31N 43°29' E 010°16'0 0.1
2018-Jan-07 18:01N 43°29' E 010°16'0 0.0
2018-Jan-07 17:31N 43°29' E 010°16'0 0.0
2018-Jan-07 17:01N 43°29' E 010°16'0 0.0
2018-Jan-07 16:31N 43°29' E 010°16'0 0.0
2018-Jan-07 16:01N 43°29' E 010°16'0 0.0
2018-Jan-07 15:31N 43°29' E 010°16'0 0.0
2018-Jan-07 15:00N 43°29' E 010°16'0 0.0
2018-Jan-07 14:30N 43°29' E 010°16'0 0.0
2018-Jan-07 14:01N 43°29' E 010°16'0 0.0
2018-Jan-07 13:30N 43°29' E 010°16'0 0.0
2018-Jan-07 13:01N 43°29' E 010°16'0 0.1
2018-Jan-07 12:31N 43°29' E 010°16'0 0.0
2018-Jan-07 12:00N 43°29' E 010°16'0 0.0
2018-Jan-07 11:31N 43°29' E 010°16'0 0.0
2018-Jan-07 11:01N 43°29' E 010°16'0 0.0
2018-Jan-07 10:31N 43°29' E 010°16'0 0.0
2018-Jan-07 10:00N 43°29' E 010°16'0 0.1
2018-Jan-07 09:31N 43°29' E 010°16'0 0.0
2018-Jan-07 09:01N 43°29' E 010°16'0 0.0
2018-Jan-07 08:31N 43°29' E 010°16'0 0.0
2018-Jan-07 08:01N 43°29' E 010°16'0 0.0
2018-Jan-07 07:31N 43°29' E 010°16'0 0.0
2018-Jan-07 07:01N 43°29' E 010°16'0 0.0
2018-Jan-07 06:31N 43°29' E 010°16'0 0.0
2018-Jan-07 06:01N 43°29' E 010°16'0 0.0
2018-Jan-07 05:31N 43°29' E 010°16'0 0.0
2018-Jan-07 05:01N 43°29' E 010°16'0 0.0
2018-Jan-07 04:31N 43°29' E 010°16'0 0.0
2018-Jan-07 04:01N 43°29' E 010°16'0 0.0
2018-Jan-07 03:30N 43°29' E 010°16'0 0.0
2018-Jan-07 03:00N 43°29' E 010°16'0 0.0
2018-Jan-07 02:30N 43°29' E 010°16'0 0.0
2018-Jan-07 02:01N 43°29' E 010°16'0 0.0
2018-Jan-07 01:31N 43°29' E 010°16'0 0.0
2018-Jan-07 00:31N 43°29' E 010°16'0 0.1
2018-Jan-07 00:01N 43°29' E 010°16'0 0.0
2018-Jan-06 23:31N 43°29' E 010°16'0 0.0
2018-Jan-06 23:01N 43°29' E 010°16'0 0.0
2018-Jan-06 22:31N 43°29' E 010°16'0 0.0
2018-Jan-06 22:00N 43°29' E 010°16'0 0.0
2018-Jan-06 21:31N 43°29' E 010°16'0 0.0
2018-Jan-06 21:01N 43°29' E 010°16'0 0.0
2018-Jan-06 20:31N 43°29' E 010°16'0 0.0
2018-Jan-06 20:01N 43°29' E 010°16'0 0.0
2018-Jan-06 19:31N 43°29' E 010°16'0 0.0
2018-Jan-06 19:01N 43°29' E 010°16'0 0.0
2018-Jan-06 18:31N 43°29' E 010°16'0 0.0
2018-Jan-06 18:01N 43°29' E 010°16'0 0.0
2018-Jan-06 17:31N 43°29' E 010°16'0 0.0
2018-Jan-06 17:01N 43°29' E 010°16'0 0.0
2018-Jan-06 16:31N 43°30' E 010°16'0 0.0
2018-Jan-06 16:01N 43°30' E 010°16'0 0.0
2018-Jan-06 15:30N 43°30' E 010°16'0 0.0
2018-Jan-06 15:01N 43°29' E 010°16'0 0.0
2018-Jan-06 14:30N 43°29' E 010°16'0 0.0
2018-Jan-06 14:01N 43°29' E 010°16'0 0.0
2018-Jan-06 13:31N 43°29' E 010°16'0 0.1
2018-Jan-06 13:00N 43°29' E 010°16'0 0.0
2018-Jan-06 12:31N 43°29' E 010°16'0 0.0
2018-Jan-06 12:00N 43°29' E 010°16'0 0.0
2018-Jan-06 11:30N 43°29' E 010°16'0 0.0
2018-Jan-06 11:01N 43°29' E 010°16'0 0.0
2018-Jan-06 10:31N 43°29' E 010°16'0 0.0
2018-Jan-06 10:00N 43°29' E 010°16'0 0.0
2018-Jan-06 09:31N 43°29' E 010°16'0 0.0
2018-Jan-06 09:01N 43°29' E 010°16'0 0.0
2018-Jan-06 08:30N 43°29' E 010°16'0 0.0
2018-Jan-06 08:01N 43°29' E 010°16'0 0.0
2018-Jan-06 07:31N 43°29' E 010°16'0 0.0
2018-Jan-06 07:01N 43°29' E 010°16'0 0.0
2018-Jan-06 06:31N 43°29' E 010°16'0 0.0
2018-Jan-06 06:00N 43°29' E 010°16'0 0.0
2018-Jan-06 05:31N 43°29' E 010°16'0 0.0
2018-Jan-06 05:01N 43°29' E 010°16'0 0.0
2018-Jan-06 04:31N 43°29' E 010°16'0 0.0
2018-Jan-06 04:01N 43°29' E 010°16'0 0.0
2018-Jan-06 03:31N 43°29' E 010°16'0 0.0
2018-Jan-06 03:01N 43°29' E 010°16'0 0.1
2018-Jan-06 02:30N 43°29' E 010°16'0 0.0
2018-Jan-06 02:01N 43°29' E 010°16'0 0.1
2018-Jan-06 01:31N 43°29' E 010°16'0 0.3
2018-Jan-06 01:01N 43°29' E 010°16'5 9.8
2018-Jan-06 00:30N 43°25' E 010°15'510.1
2018-Jan-06 00:01N 43°20' E 010°14'510.2
2018-Jan-05 23:31N 43°15' E 010°12'510.4
2018-Jan-05 23:01N 43°09' E 010°11'510.4
2018-Jan-05 22:30N 43°04' E 010°10'610.3
2018-Jan-05 21:56N 42°59' E 010°09'  

Dump ship's entire track history